Wednesday March 29, 2017 at 6:30 a.m.

AVIATION AREA FORECAST

SIGNIFICANT FEATURE…………… A High Pressure Ridge across the western Caribbean.

TODAY'S FORECAST
This Morning… Partly cloudy over northeastern parishes, mainly fair elsewhere.
This Afternoon… Isolated showers mainly across hilly inland and southwestern areas.
Tonight… Becoming fair.


CLOUDS GENERALLY ACROSS THE ISLAND:
This Morning… FEW024 SCT040
This Afternoon… SCT020 FEW022CB


WINDS AND TEMPERATURES

Flight 20N 80W 20N 75W
Levels WIND/TEMP WIND/TEMP
450 25037KT/-64 26042KT/-64
390 29052KT/-51 28046KT/-50
340 29052KT/-41 29050KT/-40
300 30042KT/-32 30042KT/-32
240 31019KT/-16 31015KT/-18
180 02000KT/-05 35006KT/-06
100 09008KT/09 05006KT/09
50 06014KT/17 06006KT/15

Flight 15N 80W 15N 75W
Levels WIND/TEMP WIND/TEMP
450 25025KT/-66 27025KT/-67
390 26035KT/-52 27035KT/-52
340 26035KT/-40 26037KT/-40
300 27033KT/-29 27039KT/-28
240 33019KT/-14 31027KT/-14
180 28004KT/-05 27017KT/-05
100 03004KT/11 22008KT/09
50 12006KT/17 08010KT/17

UPPER LEVEL JET ACROSS KINGSTON FIR


AERODROME  FORECAST
MKJP 291115Z 2912/3012 36005KT 9999 FEW022
BECMG 2914/2916 15014KT
PROB40
TEMPO 2918/2924 FEW020 FEW022CB
BECMG 3002/3004 36005KT
MKJS 291115Z 2912/3012 14003KT 9999 FEW024
BECMG 2913/2915 07015KT
BECMG 3000/3002 14003KT

JKH